Amsterdam Airport Schiphol

EHAM | AMS

Amsterdam , North-Holland , Netherlands

Sunday, August 18th, 2019 | 07:09

Weather

EHAM 180455Z 19010KT 9999 -RA FEW010 16/15 Q1004 NOSIG

Charts

2 Available

Gates

289 Available

Runways

6 Available

Events

2 Events Coming Up Soon

Next event:
100 Years KLM |


New event